sensor_id;sensor_type;location;lat;lon;timestamp;P1;durP1;ratioP1;P2;durP2;ratioP2
65558;SDS011;52203;51.998;5.140;2022-09-09T00:02:04;5.82;;;1.92;;
65558;SDS011;52203;51.998;5.140;2022-09-09T00:04:42;3.25;;;1.60;;
65558;SDS011;52203;51.998;5.140;2022-09-09T00:13:04;7.70;;;2.72;;
65558;SDS011;52203;51.998;5.140;2022-09-09T00:15:40;5.95;;;2.00;;
65558;SDS011;52203;51.998;5.140;2022-09-09T00:18:14;3.83;;;2.08;;
65558;SDS011;52203;51.998;5.140;2022-09-09T00:20:58;4.75;;;2.28;;
65558;SDS011;52203;51.998;5.140;2022-09-09T00:23:42;4.05;;;1.88;;
65558;SDS011;52203;51.998;5.140;2022-09-09T00:29:09;4.03;;;1.83;;
65558;SDS011;52203;51.998;5.140;2022-09-09T00:31:42;4.20;;;1.90;;
65558;SDS011;52203;51.998;5.140;2022-09-09T00:34:12;4.13;;;1.70;;
65558;SDS011;52203;51.998;5.140;2022-09-09T00:36:44;4.45;;;2.00;;
65558;SDS011;52203;51.998;5.140;2022-09-09T00:39:27;2.92;;;1.83;;
65558;SDS011;52203;51.998;5.140;2022-09-09T00:42:16;4.25;;;1.60;;
65558;SDS011;52203;51.998;5.140;2022-09-09T00:47:31;4.45;;;2.25;;
65558;SDS011;52203;51.998;5.140;2022-09-09T00:58:31;4.93;;;2.35;;
65558;SDS011;52203;51.998;5.140;2022-09-09T01:01:00;5.15;;;2.20;;
65558;SDS011;52203;51.998;5.140;2022-09-09T01:03:47;4.72;;;2.13;;
65558;SDS011;52203;51.998;5.140;2022-09-09T01:11:26;5.68;;;2.75;;
65558;SDS011;52203;51.998;5.140;2022-09-09T01:14:14;6.10;;;2.40;;
65558;SDS011;52203;51.998;5.140;2022-09-09T01:16:57;6.88;;;2.38;;
65558;SDS011;52203;51.998;5.140;2022-09-09T01:24:43;5.40;;;2.13;;
65558;SDS011;52203;51.998;5.140;2022-09-09T01:27:35;4.65;;;2.40;;
65558;SDS011;52203;51.998;5.140;2022-09-09T01:30:02;4.05;;;2.45;;
65558;SDS011;52203;51.998;5.140;2022-09-09T01:32:38;4.95;;;2.63;;
65558;SDS011;52203;51.998;5.140;2022-09-09T01:37:48;6.80;;;3.08;;
65558;SDS011;52203;51.998;5.140;2022-09-09T01:40:14;4.97;;;2.95;;
65558;SDS011;52203;51.998;5.140;2022-09-09T01:42:40;6.32;;;2.50;;
65558;SDS011;52203;51.998;5.140;2022-09-09T01:45:06;5.32;;;2.42;;
65558;SDS011;52203;51.998;5.140;2022-09-09T01:47:32;5.28;;;3.40;;
65558;SDS011;52203;51.998;5.140;2022-09-09T01:49:57;6.10;;;2.90;;
65558;SDS011;52203;51.998;5.140;2022-09-09T01:52:25;5.15;;;2.35;;
65558;SDS011;52203;51.998;5.140;2022-09-09T01:54:51;6.60;;;3.28;;
65558;SDS011;52203;51.998;5.140;2022-09-09T01:57:27;6.38;;;2.88;;
65558;SDS011;52203;51.998;5.140;2022-09-09T02:00:05;5.68;;;2.90;;
65558;SDS011;52203;51.998;5.140;2022-09-09T02:08:22;7.63;;;3.10;;
65558;SDS011;52203;51.998;5.140;2022-09-09T02:13:37;6.05;;;2.75;;
65558;SDS011;52203;51.998;5.140;2022-09-09T02:16:08;6.35;;;3.28;;
65558;SDS011;52203;51.998;5.140;2022-09-09T02:18:41;6.93;;;3.13;;
65558;SDS011;52203;51.998;5.140;2022-09-09T02:21:10;5.32;;;2.67;;
65558;SDS011;52203;51.998;5.140;2022-09-09T02:23:37;5.28;;;3.17;;
65558;SDS011;52203;51.998;5.140;2022-09-09T02:26:04;8.43;;;3.15;;
65558;SDS011;52203;51.998;5.140;2022-09-09T02:28:32;5.18;;;2.40;;
65558;SDS011;52203;51.998;5.140;2022-09-09T02:31:01;5.47;;;3.47;;
65558;SDS011;52203;51.998;5.140;2022-09-09T02:33:30;6.00;;;2.80;;
65558;SDS011;52203;51.998;5.140;2022-09-09T02:36:05;5.35;;;2.80;;
65558;SDS011;52203;51.998;5.140;2022-09-09T02:38:35;6.93;;;3.30;;
65558;SDS011;52203;51.998;5.140;2022-09-09T02:41:04;7.00;;;2.65;;
65558;SDS011;52203;51.998;5.140;2022-09-09T02:43:34;6.45;;;2.10;;
65558;SDS011;52203;51.998;5.140;2022-09-09T02:54:10;6.88;;;3.10;;
65558;SDS011;52203;51.998;5.140;2022-09-09T02:56:57;7.55;;;3.90;;
65558;SDS011;52203;51.998;5.140;2022-09-09T02:59:35;4.30;;;2.17;;
65558;SDS011;52203;51.998;5.140;2022-09-09T03:02:01;5.80;;;3.17;;
65558;SDS011;52203;51.998;5.140;2022-09-09T03:04:28;8.25;;;3.58;;
65558;SDS011;52203;51.998;5.140;2022-09-09T03:06:55;5.88;;;2.45;;
65558;SDS011;52203;51.998;5.140;2022-09-09T03:09:21;7.90;;;3.47;;
65558;SDS011;52203;51.998;5.140;2022-09-09T03:11:46;5.47;;;2.35;;
65558;SDS011;52203;51.998;5.140;2022-09-09T03:14:12;4.63;;;2.42;;
65558;SDS011;52203;51.998;5.140;2022-09-09T03:16:38;4.45;;;2.20;;
65558;SDS011;52203;51.998;5.140;2022-09-09T03:19:03;5.35;;;2.97;;
65558;SDS011;52203;51.998;5.140;2022-09-09T03:21:29;5.43;;;3.00;;
65558;SDS011;52203;51.998;5.140;2022-09-09T03:23:55;7.00;;;3.58;;
65558;SDS011;52203;51.998;5.140;2022-09-09T03:26:20;6.65;;;3.70;;
65558;SDS011;52203;51.998;5.140;2022-09-09T03:28:46;6.47;;;3.03;;
65558;SDS011;52203;51.998;5.140;2022-09-09T03:31:12;6.72;;;3.67;;
65558;SDS011;52203;51.998;5.140;2022-09-09T03:33:37;6.68;;;3.65;;
65558;SDS011;52203;51.998;5.140;2022-09-09T03:36:03;7.43;;;3.58;;
65558;SDS011;52203;51.998;5.140;2022-09-09T03:38:30;7.15;;;3.67;;
65558;SDS011;52203;51.998;5.140;2022-09-09T03:40:56;6.70;;;3.03;;
65558;SDS011;52203;51.998;5.140;2022-09-09T03:43:25;9.35;;;3.78;;
65558;SDS011;52203;51.998;5.140;2022-09-09T03:45:51;6.75;;;3.15;;
65558;SDS011;52203;51.998;5.140;2022-09-09T03:48:18;7.15;;;3.67;;
65558;SDS011;52203;51.998;5.140;2022-09-09T03:50:47;9.73;;;3.90;;
65558;SDS011;52203;51.998;5.140;2022-09-09T03:53:13;7.45;;;3.30;;
65558;SDS011;52203;51.998;5.140;2022-09-09T03:55:43;7.32;;;3.53;;
65558;SDS011;52203;51.998;5.140;2022-09-09T03:58:14;10.65;;;3.90;;
65558;SDS011;52203;51.998;5.140;2022-09-09T04:00:41;7.80;;;3.60;;
65558;SDS011;52203;51.998;5.140;2022-09-09T04:03:10;7.55;;;3.83;;
65558;SDS011;52203;51.998;5.140;2022-09-09T04:05:36;7.80;;;3.55;;
65558;SDS011;52203;51.998;5.140;2022-09-09T04:08:05;7.15;;;3.13;;
65558;SDS011;52203;51.998;5.140;2022-09-09T04:10:32;6.75;;;2.92;;
65558;SDS011;52203;51.998;5.140;2022-09-09T04:12:58;6.47;;;3.90;;
65558;SDS011;52203;51.998;5.140;2022-09-09T04:15:25;7.05;;;3.40;;
65558;SDS011;52203;51.998;5.140;2022-09-09T04:17:50;7.90;;;3.60;;
65558;SDS011;52203;51.998;5.140;2022-09-09T04:20:16;7.68;;;3.78;;
65558;SDS011;52203;51.998;5.140;2022-09-09T04:22:41;6.80;;;2.67;;
65558;SDS011;52203;51.998;5.140;2022-09-09T04:25:07;8.00;;;3.35;;
65558;SDS011;52203;51.998;5.140;2022-09-09T04:27:33;6.07;;;2.72;;
65558;SDS011;52203;51.998;5.140;2022-09-09T04:29:58;6.43;;;2.70;;
65558;SDS011;52203;51.998;5.140;2022-09-09T04:32:24;9.30;;;3.08;;
65558;SDS011;52203;51.998;5.140;2022-09-09T04:34:52;5.80;;;2.80;;
65558;SDS011;52203;51.998;5.140;2022-09-09T04:37:17;6.20;;;3.10;;
65558;SDS011;52203;51.998;5.140;2022-09-09T04:39:43;7.82;;;3.10;;
65558;SDS011;52203;51.998;5.140;2022-09-09T04:42:10;5.25;;;2.85;;
65558;SDS011;52203;51.998;5.140;2022-09-09T04:44:36;5.22;;;2.72;;
65558;SDS011;52203;51.998;5.140;2022-09-09T04:47:01;4.78;;;2.45;;
65558;SDS011;52203;51.998;5.140;2022-09-09T04:49:27;6.22;;;3.03;;
65558;SDS011;52203;51.998;5.140;2022-09-09T04:51:53;6.07;;;2.97;;
65558;SDS011;52203;51.998;5.140;2022-09-09T04:54:18;7.15;;;3.42;;
65558;SDS011;52203;51.998;5.140;2022-09-09T04:56:44;6.22;;;2.90;;
65558;SDS011;52203;51.998;5.140;2022-09-09T04:59:09;9.65;;;3.83;;
65558;SDS011;52203;51.998;5.140;2022-09-09T05:01:35;11.10;;;3.35;;
65558;SDS011;52203;51.998;5.140;2022-09-09T05:04:01;7.50;;;3.05;;
65558;SDS011;52203;51.998;5.140;2022-09-09T05:06:28;6.05;;;3.05;;
65558;SDS011;52203;51.998;5.140;2022-09-09T05:08:56;7.53;;;3.28;;
65558;SDS011;52203;51.998;5.140;2022-09-09T05:11:26;8.43;;;3.05;;
65558;SDS011;52203;51.998;5.140;2022-09-09T05:13:54;7.10;;;3.22;;
65558;SDS011;52203;51.998;5.140;2022-09-09T05:16:20;7.90;;;3.10;;
65558;SDS011;52203;51.998;5.140;2022-09-09T05:18:46;9.32;;;3.58;;
65558;SDS011;52203;51.998;5.140;2022-09-09T05:21:12;5.88;;;2.80;;
65558;SDS011;52203;51.998;5.140;2022-09-09T05:23:39;6.05;;;3.17;;
65558;SDS011;52203;51.998;5.140;2022-09-09T05:26:05;6.75;;;3.45;;
65558;SDS011;52203;51.998;5.140;2022-09-09T05:28:33;9.63;;;3.72;;
65558;SDS011;52203;51.998;5.140;2022-09-09T05:31:01;7.70;;;2.90;;
65558;SDS011;52203;51.998;5.140;2022-09-09T05:33:30;5.97;;;3.03;;
65558;SDS011;52203;51.998;5.140;2022-09-09T05:35:57;6.75;;;2.90;;
65558;SDS011;52203;51.998;5.140;2022-09-09T05:38:29;10.15;;;3.25;;
65558;SDS011;52203;51.998;5.140;2022-09-09T05:40:55;8.38;;;3.20;;
65558;SDS011;52203;51.998;5.140;2022-09-09T05:43:24;5.80;;;3.28;;
65558;SDS011;52203;51.998;5.140;2022-09-09T05:48:32;7.95;;;3.30;;
65558;SDS011;52203;51.998;5.140;2022-09-09T05:51:00;8.80;;;3.55;;
65558;SDS011;52203;51.998;5.140;2022-09-09T05:53:27;11.02;;;3.40;;
65558;SDS011;52203;51.998;5.140;2022-09-09T05:58:29;6.63;;;3.20;;
65558;SDS011;52203;51.998;5.140;2022-09-09T06:01:05;7.15;;;3.25;;
65558;SDS011;52203;51.998;5.140;2022-09-09T06:03:33;11.07;;;3.05;;
65558;SDS011;52203;51.998;5.140;2022-09-09T06:06:00;9.55;;;3.00;;
65558;SDS011;52203;51.998;5.140;2022-09-09T06:08:30;5.45;;;2.58;;
65558;SDS011;52203;51.998;5.140;2022-09-09T06:11:01;9.30;;;3.33;;
65558;SDS011;52203;51.998;5.140;2022-09-09T06:13:28;8.30;;;3.10;;
65558;SDS011;52203;51.998;5.140;2022-09-09T06:15:54;6.03;;;2.40;;
65558;SDS011;52203;51.998;5.140;2022-09-09T06:18:20;7.35;;;3.25;;
65558;SDS011;52203;51.998;5.140;2022-09-09T06:20:59;8.45;;;2.83;;
65558;SDS011;52203;51.998;5.140;2022-09-09T06:23:26;7.32;;;2.92;;
65558;SDS011;52203;51.998;5.140;2022-09-09T06:26:13;10.23;;;3.20;;
65558;SDS011;52203;51.998;5.140;2022-09-09T06:28:49;6.30;;;2.70;;
65558;SDS011;52203;51.998;5.140;2022-09-09T06:31:18;12.25;;;3.47;;
65558;SDS011;52203;51.998;5.140;2022-09-09T06:33:49;6.35;;;2.47;;
65558;SDS011;52203;51.998;5.140;2022-09-09T06:36:18;6.50;;;2.55;;
65558;SDS011;52203;51.998;5.140;2022-09-09T06:38:45;7.28;;;2.42;;
65558;SDS011;52203;51.998;5.140;2022-09-09T06:41:12;7.57;;;2.95;;
65558;SDS011;52203;51.998;5.140;2022-09-09T06:43:39;5.00;;;2.38;;
65558;SDS011;52203;51.998;5.140;2022-09-09T06:46:12;7.22;;;3.13;;
65558;SDS011;52203;51.998;5.140;2022-09-09T06:48:39;5.78;;;2.83;;
65558;SDS011;52203;51.998;5.140;2022-09-09T06:51:19;7.10;;;2.95;;
65558;SDS011;52203;51.998;5.140;2022-09-09T06:53:52;5.78;;;3.08;;
65558;SDS011;52203;51.998;5.140;2022-09-09T06:58:52;12.23;;;2.90;;
65558;SDS011;52203;51.998;5.140;2022-09-09T07:01:19;5.80;;;2.85;;
65558;SDS011;52203;51.998;5.140;2022-09-09T07:03:49;10.20;;;2.95;;
65558;SDS011;52203;51.998;5.140;2022-09-09T07:08:48;6.50;;;2.70;;
65558;SDS011;52203;51.998;5.140;2022-09-09T07:11:14;6.47;;;2.80;;
65558;SDS011;52203;51.998;5.140;2022-09-09T07:13:40;6.57;;;2.65;;
65558;SDS011;52203;51.998;5.140;2022-09-09T07:16:08;7.47;;;2.90;;
65558;SDS011;52203;51.998;5.140;2022-09-09T07:18:37;8.32;;;3.08;;
65558;SDS011;52203;51.998;5.140;2022-09-09T07:21:04;7.35;;;2.95;;
65558;SDS011;52203;51.998;5.140;2022-09-09T07:23:32;11.18;;;3.10;;
65558;SDS011;52203;51.998;5.140;2022-09-09T07:25:58;6.00;;;2.70;;
65558;SDS011;52203;51.998;5.140;2022-09-09T07:28:24;9.30;;;2.58;;
65558;SDS011;52203;51.998;5.140;2022-09-09T07:33:21;7.68;;;2.42;;
65558;SDS011;52203;51.998;5.140;2022-09-09T07:35:47;5.38;;;2.30;;
65558;SDS011;52203;51.998;5.140;2022-09-09T07:38:12;7.30;;;2.50;;
65558;SDS011;52203;51.998;5.140;2022-09-09T07:40:39;8.27;;;2.53;;
65558;SDS011;52203;51.998;5.140;2022-09-09T07:43:05;6.50;;;2.30;;
65558;SDS011;52203;51.998;5.140;2022-09-09T07:45:32;4.97;;;2.50;;
65558;SDS011;52203;51.998;5.140;2022-09-09T07:47:59;8.00;;;2.40;;
65558;SDS011;52203;51.998;5.140;2022-09-09T07:50:25;6.40;;;2.40;;
65558;SDS011;52203;51.998;5.140;2022-09-09T07:52:51;6.28;;;2.40;;
65558;SDS011;52203;51.998;5.140;2022-09-09T07:55:19;4.82;;;1.98;;
65558;SDS011;52203;51.998;5.140;2022-09-09T07:57:50;6.03;;;2.15;;
65558;SDS011;52203;51.998;5.140;2022-09-09T08:00:16;10.65;;;2.45;;
65558;SDS011;52203;51.998;5.140;2022-09-09T08:02:47;8.23;;;2.75;;
65558;SDS011;52203;51.998;5.140;2022-09-09T08:05:13;7.05;;;2.10;;
65558;SDS011;52203;51.998;5.140;2022-09-09T08:07:40;5.43;;;2.13;;
65558;SDS011;52203;51.998;5.140;2022-09-09T08:10:05;7.07;;;2.58;;
65558;SDS011;52203;51.998;5.140;2022-09-09T08:12:31;6.13;;;2.40;;
65558;SDS011;52203;51.998;5.140;2022-09-09T08:14:57;6.53;;;2.40;;
65558;SDS011;52203;51.998;5.140;2022-09-09T08:17:29;6.72;;;2.63;;
65558;SDS011;52203;51.998;5.140;2022-09-09T08:19:56;7.63;;;2.60;;
65558;SDS011;52203;51.998;5.140;2022-09-09T08:22:23;8.00;;;2.70;;
65558;SDS011;52203;51.998;5.140;2022-09-09T08:24:49;9.55;;;3.00;;
65558;SDS011;52203;51.998;5.140;2022-09-09T08:27:15;6.18;;;2.33;;
65558;SDS011;52203;51.998;5.140;2022-09-09T08:29:40;7.95;;;1.98;;
65558;SDS011;52203;51.998;5.140;2022-09-09T08:32:06;6.05;;;2.50;;
65558;SDS011;52203;51.998;5.140;2022-09-09T08:34:31;11.05;;;2.88;;
65558;SDS011;52203;51.998;5.140;2022-09-09T08:36:57;8.48;;;2.83;;
65558;SDS011;52203;51.998;5.140;2022-09-09T08:39:23;10.15;;;3.15;;
65558;SDS011;52203;51.998;5.140;2022-09-09T08:41:56;8.10;;;2.45;;
65558;SDS011;52203;51.998;5.140;2022-09-09T08:58:12;7.05;;;2.70;;
65558;SDS011;52203;51.998;5.140;2022-09-09T09:00:56;7.22;;;2.40;;
65558;SDS011;52203;51.998;5.140;2022-09-09T09:12:14;11.57;;;2.45;;
65558;SDS011;52203;51.998;5.140;2022-09-09T09:14:48;8.35;;;2.70;;
65558;SDS011;52203;51.998;5.140;2022-09-09T09:17:20;6.82;;;2.63;;
65558;SDS011;52203;51.998;5.140;2022-09-09T09:19:48;6.35;;;2.70;;
65558;SDS011;52203;51.998;5.140;2022-09-09T09:22:26;6.10;;;2.38;;
65558;SDS011;52203;51.998;5.140;2022-09-09T09:25:19;10.63;;;2.78;;
65558;SDS011;52203;51.998;5.140;2022-09-09T09:30:34;4.75;;;2.30;;
65558;SDS011;52203;51.998;5.140;2022-09-09T09:35:57;10.30;;;2.47;;
65558;SDS011;52203;51.998;5.140;2022-09-09T09:38:25;8.82;;;2.65;;
65558;SDS011;52203;51.998;5.140;2022-09-09T09:40:57;6.72;;;2.17;;
65558;SDS011;52203;51.998;5.140;2022-09-09T09:43:24;5.75;;;2.45;;
65558;SDS011;52203;51.998;5.140;2022-09-09T09:45:55;7.60;;;2.47;;
65558;SDS011;52203;51.998;5.140;2022-09-09T09:48:25;5.68;;;2.13;;
65558;SDS011;52203;51.998;5.140;2022-09-09T09:53:24;7.40;;;2.42;;
65558;SDS011;52203;51.998;5.140;2022-09-09T09:56:02;6.88;;;2.13;;
65558;SDS011;52203;51.998;5.140;2022-09-09T10:01:24;5.75;;;2.05;;
65558;SDS011;52203;51.998;5.140;2022-09-09T10:03:52;10.40;;;2.58;;
65558;SDS011;52203;51.998;5.140;2022-09-09T10:06:32;4.90;;;2.17;;
65558;SDS011;52203;51.998;5.140;2022-09-09T10:08:59;6.18;;;2.80;;
65558;SDS011;52203;51.998;5.140;2022-09-09T10:17:43;7.88;;;2.45;;
65558;SDS011;52203;51.998;5.140;2022-09-09T10:20:35;10.60;;;3.17;;
65558;SDS011;52203;51.998;5.140;2022-09-09T10:26:31;6.88;;;2.60;;
65558;SDS011;52203;51.998;5.140;2022-09-09T10:34:43;7.28;;;2.55;;
65558;SDS011;52203;51.998;5.140;2022-09-09T10:37:38;6.97;;;2.08;;
65558;SDS011;52203;51.998;5.140;2022-09-09T10:40:40;7.15;;;2.45;;
65558;SDS011;52203;51.998;5.140;2022-09-09T10:51:11;5.97;;;2.60;;
65558;SDS011;52203;51.998;5.140;2022-09-09T10:56:12;4.30;;;2.05;;
65558;SDS011;52203;51.998;5.140;2022-09-09T10:58:46;5.18;;;2.70;;
65558;SDS011;52203;51.998;5.140;2022-09-09T11:01:21;7.85;;;2.78;;
65558;SDS011;52203;51.998;5.140;2022-09-09T11:04:10;6.47;;;2.38;;
65558;SDS011;52203;51.998;5.140;2022-09-09T11:07:05;7.88;;;2.47;;
65558;SDS011;52203;51.998;5.140;2022-09-09T11:09:38;8.93;;;2.72;;
65558;SDS011;52203;51.998;5.140;2022-09-09T11:12:13;6.68;;;2.47;;
65558;SDS011;52203;51.998;5.140;2022-09-09T11:14:45;9.20;;;2.38;;
65558;SDS011;52203;51.998;5.140;2022-09-09T11:17:15;5.78;;;2.30;;
65558;SDS011;52203;51.998;5.140;2022-09-09T11:19:45;5.95;;;2.20;;
65558;SDS011;52203;51.998;5.140;2022-09-09T11:22:32;4.85;;;2.35;;
65558;SDS011;52203;51.998;5.140;2022-09-09T11:25:16;6.22;;;2.00;;
65558;SDS011;52203;51.998;5.140;2022-09-09T11:28:06;4.20;;;1.90;;
65558;SDS011;52203;51.998;5.140;2022-09-09T11:33:41;7.28;;;2.17;;
65558;SDS011;52203;51.998;5.140;2022-09-09T11:42:15;7.07;;;2.33;;
65558;SDS011;52203;51.998;5.140;2022-09-09T11:44:48;5.97;;;2.20;;
65558;SDS011;52203;51.998;5.140;2022-09-09T11:47:28;5.95;;;3.00;;
65558;SDS011;52203;51.998;5.140;2022-09-09T11:50:09;6.40;;;2.60;;
65558;SDS011;52203;51.998;5.140;2022-09-09T11:53:14;5.68;;;2.75;;
65558;SDS011;52203;51.998;5.140;2022-09-09T11:55:46;8.40;;;3.20;;
65558;SDS011;52203;51.998;5.140;2022-09-09T12:05:58;4.43;;;2.17;;
65558;SDS011;52203;51.998;5.140;2022-09-09T12:08:26;4.72;;;2.20;;
65558;SDS011;52203;51.998;5.140;2022-09-09T12:10:55;6.72;;;2.63;;
65558;SDS011;52203;51.998;5.140;2022-09-09T12:13:28;4.93;;;2.45;;
65558;SDS011;52203;51.998;5.140;2022-09-09T12:15:57;7.35;;;2.35;;
65558;SDS011;52203;51.998;5.140;2022-09-09T12:24:10;5.93;;;2.58;;
65558;SDS011;52203;51.998;5.140;2022-09-09T12:26:42;5.30;;;2.40;;
65558;SDS011;52203;51.998;5.140;2022-09-09T12:32:11;6.90;;;3.20;;
65558;SDS011;52203;51.998;5.140;2022-09-09T12:34:46;5.95;;;2.60;;
65558;SDS011;52203;51.998;5.140;2022-09-09T12:40:22;5.95;;;2.42;;
65558;SDS011;52203;51.998;5.140;2022-09-09T12:42:56;7.60;;;2.80;;
65558;SDS011;52203;51.998;5.140;2022-09-09T12:45:24;6.22;;;2.38;;
65558;SDS011;52203;51.998;5.140;2022-09-09T12:50:35;5.88;;;2.42;;
65558;SDS011;52203;51.998;5.140;2022-09-09T12:53:09;5.03;;;2.10;;
65558;SDS011;52203;51.998;5.140;2022-09-09T12:56:03;5.32;;;2.63;;
65558;SDS011;52203;51.998;5.140;2022-09-09T12:58:32;6.93;;;2.53;;
65558;SDS011;52203;51.998;5.140;2022-09-09T13:01:00;5.43;;;2.63;;
65558;SDS011;52203;51.998;5.140;2022-09-09T13:03:29;6.75;;;3.05;;
65558;SDS011;52203;51.998;5.140;2022-09-09T13:06:10;5.10;;;2.42;;
65558;SDS011;52203;51.998;5.140;2022-09-09T13:08:37;8.48;;;3.00;;
65558;SDS011;52203;51.998;5.140;2022-09-09T13:11:04;6.28;;;2.92;;
65558;SDS011;52203;51.998;5.140;2022-09-09T13:13:37;5.15;;;3.10;;
65558;SDS011;52203;51.998;5.140;2022-09-09T13:16:05;6.45;;;3.03;;
65558;SDS011;52203;51.998;5.140;2022-09-09T13:18:37;6.85;;;3.10;;
65558;SDS011;52203;51.998;5.140;2022-09-09T13:21:05;6.50;;;3.73;;
65558;SDS011;52203;51.998;5.140;2022-09-09T13:23:36;7.43;;;2.88;;
65558;SDS011;52203;51.998;5.140;2022-09-09T13:26:03;6.00;;;2.78;;
65558;SDS011;52203;51.998;5.140;2022-09-09T13:28:51;9.20;;;3.00;;
65558;SDS011;52203;51.998;5.140;2022-09-09T13:33:54;5.57;;;2.80;;
65558;SDS011;52203;51.998;5.140;2022-09-09T13:36:33;7.22;;;3.10;;
65558;SDS011;52203;51.998;5.140;2022-09-09T13:39:00;7.13;;;3.30;;
65558;SDS011;52203;51.998;5.140;2022-09-09T13:41:42;6.18;;;3.00;;
65558;SDS011;52203;51.998;5.140;2022-09-09T13:47:05;4.13;;;2.53;;
65558;SDS011;52203;51.998;5.140;2022-09-09T13:49:42;6.95;;;3.05;;
65558;SDS011;52203;51.998;5.140;2022-09-09T13:54:42;6.03;;;3.20;;
65558;SDS011;52203;51.998;5.140;2022-09-09T13:57:14;7.55;;;2.83;;
65558;SDS011;52203;51.998;5.140;2022-09-09T13:59:47;5.72;;;2.58;;
65558;SDS011;52203;51.998;5.140;2022-09-09T14:02:15;8.25;;;3.33;;
65558;SDS011;52203;51.998;5.140;2022-09-09T14:04:41;6.22;;;3.15;;
65558;SDS011;52203;51.998;5.140;2022-09-09T14:07:14;11.68;;;3.60;;
65558;SDS011;52203;51.998;5.140;2022-09-09T14:09:41;5.55;;;2.55;;
65558;SDS011;52203;51.998;5.140;2022-09-09T14:12:11;8.48;;;3.45;;
65558;SDS011;52203;51.998;5.140;2022-09-09T14:14:37;7.70;;;3.47;;
65558;SDS011;52203;51.998;5.140;2022-09-09T14:17:03;5.57;;;3.50;;
65558;SDS011;52203;51.998;5.140;2022-09-09T14:19:29;6.00;;;3.28;;
65558;SDS011;52203;51.998;5.140;2022-09-09T14:21:56;7.88;;;3.60;;
65558;SDS011;52203;51.998;5.140;2022-09-09T14:24:22;7.47;;;3.47;;
65558;SDS011;52203;51.998;5.140;2022-09-09T14:26:48;4.90;;;2.67;;
65558;SDS011;52203;51.998;5.140;2022-09-09T14:29:14;4.60;;;2.55;;
65558;SDS011;52203;51.998;5.140;2022-09-09T14:31:39;3.92;;;2.42;;
65558;SDS011;52203;51.998;5.140;2022-09-09T14:34:05;4.95;;;2.20;;
65558;SDS011;52203;51.998;5.140;2022-09-09T14:36:31;3.65;;;2.03;;
65558;SDS011;52203;51.998;5.140;2022-09-09T14:38:57;4.03;;;1.98;;
65558;SDS011;52203;51.998;5.140;2022-09-09T14:41:23;5.53;;;2.40;;
65558;SDS011;52203;51.998;5.140;2022-09-09T14:43:50;4.13;;;2.00;;
65558;SDS011;52203;51.998;5.140;2022-09-09T14:46:17;6.25;;;1.98;;
65558;SDS011;52203;51.998;5.140;2022-09-09T14:48:43;4.10;;;1.80;;
65558;SDS011;52203;51.998;5.140;2022-09-09T14:51:11;4.30;;;2.00;;
65558;SDS011;52203;51.998;5.140;2022-09-09T14:53:42;3.65;;;2.00;;
65558;SDS011;52203;51.998;5.140;2022-09-09T14:56:13;5.30;;;2.10;;
65558;SDS011;52203;51.998;5.140;2022-09-09T14:58:43;3.45;;;1.80;;
65558;SDS011;52203;51.998;5.140;2022-09-09T15:01:12;4.25;;;2.20;;
65558;SDS011;52203;51.998;5.140;2022-09-09T15:03:40;3.40;;;2.00;;
65558;SDS011;52203;51.998;5.140;2022-09-09T15:08:40;6.53;;;2.50;;
65558;SDS011;52203;51.998;5.140;2022-09-09T15:11:08;4.18;;;2.25;;
65558;SDS011;52203;51.998;5.140;2022-09-09T15:13:35;5.50;;;2.03;;
65558;SDS011;52203;51.998;5.140;2022-09-09T15:16:06;4.03;;;2.00;;
65558;SDS011;52203;51.998;5.140;2022-09-09T15:18:33;5.10;;;2.22;;
65558;SDS011;52203;51.998;5.140;2022-09-09T15:21:01;5.75;;;2.75;;
65558;SDS011;52203;51.998;5.140;2022-09-09T15:23:31;4.70;;;2.47;;
65558;SDS011;52203;51.998;5.140;2022-09-09T15:26:00;4.30;;;2.63;;
65558;SDS011;52203;51.998;5.140;2022-09-09T15:28:26;6.13;;;2.35;;
65558;SDS011;52203;51.998;5.140;2022-09-09T15:30:52;4.50;;;1.90;;
65558;SDS011;52203;51.998;5.140;2022-09-09T15:33:19;4.22;;;2.33;;
65558;SDS011;52203;51.998;5.140;2022-09-09T15:35:46;4.03;;;1.92;;
65558;SDS011;52203;51.998;5.140;2022-09-09T15:38:11;3.72;;;1.90;;
65558;SDS011;52203;51.998;5.140;2022-09-09T15:40:40;3.58;;;1.70;;
65558;SDS011;52203;51.998;5.140;2022-09-09T15:43:06;4.47;;;1.75;;
65558;SDS011;52203;51.998;5.140;2022-09-09T15:45:33;4.38;;;1.60;;
65558;SDS011;52203;51.998;5.140;2022-09-09T15:48:02;5.82;;;2.00;;
65558;SDS011;52203;51.998;5.140;2022-09-09T15:50:29;3.70;;;1.95;;
65558;SDS011;52203;51.998;5.140;2022-09-09T15:52:56;5.38;;;2.00;;
65558;SDS011;52203;51.998;5.140;2022-09-09T15:55:22;6.50;;;2.30;;
65558;SDS011;52203;51.998;5.140;2022-09-09T15:57:49;5.80;;;2.20;;
65558;SDS011;52203;51.998;5.140;2022-09-09T16:00:17;5.53;;;2.40;;
65558;SDS011;52203;51.998;5.140;2022-09-09T16:02:43;4.53;;;2.00;;
65558;SDS011;52203;51.998;5.140;2022-09-09T16:05:08;6.32;;;2.63;;
65558;SDS011;52203;51.998;5.140;2022-09-09T16:07:34;6.38;;;2.60;;
65558;SDS011;52203;51.998;5.140;2022-09-09T16:10:01;5.45;;;2.70;;
65558;SDS011;52203;51.998;5.140;2022-09-09T16:12:27;6.57;;;2.38;;
65558;SDS011;52203;51.998;5.140;2022-09-09T16:14:53;8.10;;;3.00;;
65558;SDS011;52203;51.998;5.140;2022-09-09T16:17:18;6.40;;;2.78;;
65558;SDS011;52203;51.998;5.140;2022-09-09T16:19:45;7.32;;;3.33;;
65558;SDS011;52203;51.998;5.140;2022-09-09T16:22:11;5.95;;;2.92;;
65558;SDS011;52203;51.998;5.140;2022-09-09T16:24:37;7.35;;;3.13;;
65558;SDS011;52203;51.998;5.140;2022-09-09T16:27:03;8.52;;;3.55;;
65558;SDS011;52203;51.998;5.140;2022-09-09T16:29:29;5.70;;;3.00;;
65558;SDS011;52203;51.998;5.140;2022-09-09T16:31:54;5.53;;;2.90;;
65558;SDS011;52203;51.998;5.140;2022-09-09T16:34:20;6.43;;;3.10;;
65558;SDS011;52203;51.998;5.140;2022-09-09T16:36:47;7.15;;;3.25;;
65558;SDS011;52203;51.998;5.140;2022-09-09T16:39:14;8.05;;;3.10;;
65558;SDS011;52203;51.998;5.140;2022-09-09T16:41:41;5.07;;;3.00;;
65558;SDS011;52203;51.998;5.140;2022-09-09T16:44:09;6.93;;;3.08;;
65558;SDS011;52203;51.998;5.140;2022-09-09T16:46:37;5.65;;;3.20;;
65558;SDS011;52203;51.998;5.140;2022-09-09T16:49:05;4.63;;;2.83;;
65558;SDS011;52203;51.998;5.140;2022-09-09T16:51:36;4.65;;;2.45;;
65558;SDS011;52203;51.998;5.140;2022-09-09T16:54:04;5.45;;;2.50;;
65558;SDS011;52203;51.998;5.140;2022-09-09T16:56:37;4.93;;;2.60;;
65558;SDS011;52203;51.998;5.140;2022-09-09T16:59:10;4.83;;;2.33;;
65558;SDS011;52203;51.998;5.140;2022-09-09T17:01:38;5.53;;;2.45;;
65558;SDS011;52203;51.998;5.140;2022-09-09T17:04:09;7.72;;;3.05;;
65558;SDS011;52203;51.998;5.140;2022-09-09T17:06:38;3.70;;;2.15;;
65558;SDS011;52203;51.998;5.140;2022-09-09T17:09:06;4.40;;;2.20;;
65558;SDS011;52203;51.998;5.140;2022-09-09T17:11:36;4.68;;;2.50;;
65558;SDS011;52203;51.998;5.140;2022-09-09T17:14:03;4.18;;;2.53;;
65558;SDS011;52203;51.998;5.140;2022-09-09T17:16:32;4.18;;;2.20;;
65558;SDS011;52203;51.998;5.140;2022-09-09T17:19:00;6.22;;;2.30;;
65558;SDS011;52203;51.998;5.140;2022-09-09T17:21:27;5.28;;;2.40;;
65558;SDS011;52203;51.998;5.140;2022-09-09T17:23:54;4.53;;;2.30;;
65558;SDS011;52203;51.998;5.140;2022-09-09T17:26:22;3.20;;;2.10;;
65558;SDS011;52203;51.998;5.140;2022-09-09T17:28:51;6.13;;;2.20;;
65558;SDS011;52203;51.998;5.140;2022-09-09T17:31:18;3.65;;;2.60;;
65558;SDS011;52203;51.998;5.140;2022-09-09T17:33:48;3.40;;;2.17;;
65558;SDS011;52203;51.998;5.140;2022-09-09T17:38:50;4.05;;;1.77;;
65558;SDS011;52203;51.998;5.140;2022-09-09T17:41:17;6.18;;;2.10;;
65558;SDS011;52203;51.998;5.140;2022-09-09T17:43:45;4.65;;;2.10;;
65558;SDS011;52203;51.998;5.140;2022-09-09T17:48:42;5.40;;;2.90;;
65558;SDS011;52203;51.998;5.140;2022-09-09T17:51:11;5.78;;;2.90;;
65558;SDS011;52203;51.998;5.140;2022-09-09T17:53:42;9.77;;;3.47;;